Time;durP1;ratioP1;P1;durP2;ratioP2;P2;SDS_P1;SDS_P2;PMS_P1;PMS_P2;Temp;Humidity;BMP_temperature;BMP_pressure;BME280_temperature;BME280_humidity;BME280_pressure;Samples;Min_cycle;Max_cycle;Signal;HPM_P1;HPM_P2
2022/10/13 00:00:52;;;;;;;12.85;6.80;;;14.70;99.90;;;;;;5000884;28;20661;-67
2022/10/13 00:03:18;;;;;;;14.27;7.13;;;14.70;99.90;;;;;;4998188;28;20270;-67
2022/10/13 00:05:46;;;;;;;13.13;7.80;;;14.80;99.90;;;;;;4999098;28;20268;-67
2022/10/13 00:08:13;;;;;;;15.45;7.15;;;14.70;99.90;;;;;;4999824;28;20180;-69
2022/10/13 00:10:40;;;;;;;16.83;7.30;;;14.70;99.90;;;;;;5004346;28;20184;-67
2022/10/13 00:13:07;;;;;;;15.70;7.50;;;14.70;99.90;;;;;;5007538;28;20720;-68
2022/10/13 00:15:40;;;;;;;12.02;6.80;;;14.80;99.90;;;;;;4975560;28;20176;-69
2022/10/13 00:18:06;;;;;;;14.43;6.70;;;14.80;99.90;;;;;;4989453;28;20641;-69
2022/10/13 00:20:32;;;;;;;10.65;7.55;;;14.90;99.90;;;;;;4991254;28;20262;-68
2022/10/13 00:22:58;;;;;;;13.15;8.35;;;14.80;99.90;;;;;;4992520;28;20212;-70
2022/10/13 00:25:24;;;;;;;12.20;7.30;;;14.70;99.90;;;;;;4978185;28;20192;-68
2022/10/13 00:27:49;;;;;;;9.80;5.90;;;14.70;99.90;;;;;;4994376;28;20223;-69
2022/10/13 00:30:15;;;;;;;14.20;6.88;;;14.70;99.90;;;;;;4999273;28;20226;-69
2022/10/13 00:32:41;;;;;;;15.40;8.20;;;14.70;99.90;;;;;;5010318;28;20547;-68
2022/10/13 00:35:07;;;;;;;16.15;7.80;;;14.70;99.90;;;;;;4983388;28;20227;-69
2022/10/13 00:37:32;;;;;;;14.88;7.85;;;14.80;99.90;;;;;;4990839;28;20266;-69
2022/10/13 00:39:58;;;;;;;11.70;7.20;;;14.90;99.90;;;;;;5005345;28;20183;-69
2022/10/13 00:42:25;;;;;;;17.10;8.00;;;14.90;99.90;;;;;;4991732;28;20268;-69
2022/10/13 00:45:00;;;;;;;20.23;9.27;;;14.80;99.90;;;;;;4995050;28;20349;-68
2022/10/13 00:47:29;;;;;;;12.38;6.63;;;14.80;99.90;;;;;;5010948;28;20213;-68
2022/10/13 00:49:56;;;;;;;12.88;7.65;;;14.80;99.90;;;;;;4989876;28;20683;-68
2022/10/13 00:52:24;;;;;;;14.02;7.13;;;14.80;99.90;;;;;;4992631;28;20207;-68
2022/10/13 00:54:50;;;;;;;12.52;6.68;;;14.80;99.90;;;;;;4989958;28;20226;-68
2022/10/13 00:57:19;;;;;;;17.83;7.95;;;14.70;99.90;;;;;;4986849;28;20648;-69
2022/10/13 00:59:45;;;;;;;17.10;8.48;;;14.70;99.90;;;;;;4999857;28;20258;-68
2022/10/13 01:02:11;;;;;;;12.43;6.90;;;14.70;99.90;;;;;;5009966;28;20183;-68
2022/10/13 01:04:41;;;;;;;17.20;8.55;;;14.50;99.90;;;;;;4985026;28;20192;-69
2022/10/13 01:07:08;;;;;;;14.75;7.68;;;14.50;99.90;;;;;;4986139;28;20619;-69
2022/10/13 01:09:36;;;;;;;16.23;8.35;;;14.40;99.90;;;;;;4993650;28;20633;-69
2022/10/13 01:12:22;;;;;;;12.75;7.25;;;14.30;99.90;;;;;;4990127;28;20191;-69
2022/10/13 01:14:51;;;;;;;16.45;6.88;;;14.20;99.90;;;;;;5009406;28;20227;-69
2022/10/13 01:17:39;;;;;;;9.85;6.57;;;14.10;99.90;;;;;;5003390;28;20238;-69
2022/10/13 01:20:26;;;;;;;11.45;6.95;;;14.10;99.90;;;;;;4987098;28;20277;-69
2022/10/13 01:23:20;;;;;;;12.43;6.35;;;14.00;99.90;;;;;;5012679;28;20547;-69
2022/10/13 01:26:23;;;;;;;8.55;6.53;;;14.00;99.90;;;;;;4992957;28;20190;-71
2022/10/13 01:28:49;;;;;;;11.98;6.53;;;14.10;99.90;;;;;;5010915;28;20190;-68
2022/10/13 01:31:26;;;;;;;14.63;6.93;;;14.50;99.90;;;;;;5014935;28;20187;-68
2022/10/13 01:34:13;;;;;;;10.43;6.93;;;14.40;99.90;;;;;;5010571;28;20212;-68
2022/10/13 01:36:54;;;;;;;10.70;6.80;;;14.30;99.90;;;;;;4997491;28;20191;-68
2022/10/13 01:39:25;;;;;;;11.43;8.45;;;14.40;99.90;;;;;;5008622;28;20187;-69
2022/10/13 01:41:56;;;;;;;10.45;6.82;;;14.30;99.90;;;;;;5011304;28;20233;-68
2022/10/13 01:44:38;;;;;;;12.63;7.32;;;14.30;99.90;;;;;;5007668;28;20183;-68
2022/10/13 01:47:06;;;;;;;12.07;7.07;;;14.30;99.90;;;;;;4994362;28;20514;-68
2022/10/13 01:49:34;;;;;;;13.27;8.02;;;14.30;99.90;;;;;;5003097;28;20640;-68
2022/10/13 01:52:13;;;;;;;11.15;8.50;;;14.30;99.90;;;;;;4989984;28;20211;-68
2022/10/13 01:54:39;;;;;;;10.55;8.48;;;14.20;99.90;;;;;;4995059;28;20212;-68
2022/10/13 01:57:29;;;;;;;11.02;7.78;;;14.20;99.90;;;;;;5010449;28;20275;-68
2022/10/13 01:59:56;;;;;;;17.50;9.63;;;14.10;99.90;;;;;;5009609;28;20235;-68
2022/10/13 02:02:30;;;;;;;13.18;9.48;;;14.10;99.90;;;;;;4981230;28;20187;-69
2022/10/13 02:05:18;;;;;;;15.90;9.73;;;14.10;99.90;;;;;;5007474;28;20191;-69
2022/10/13 02:07:52;;;;;;;19.02;11.23;;;14.30;99.90;;;;;;4996903;28;20192;-69
2022/10/13 02:10:24;;;;;;;22.23;12.07;;;14.30;99.90;;;;;;4999470;28;20192;-69
2022/10/13 02:13:03;;;;;;;19.25;13.13;;;14.50;99.90;;;;;;4996472;28;20270;-69
2022/10/13 02:15:48;;;;;;;24.25;13.45;;;14.60;99.90;;;;;;4983732;28;20330;-71
2022/10/13 02:18:19;;;;;;;24.23;13.15;;;14.70;99.90;;;;;;5014523;28;20215;-68
2022/10/13 02:20:46;;;;;;;25.55;13.45;;;14.70;99.90;;;;;;5013864;28;20636;-69
2022/10/13 02:23:14;;;;;;;24.42;12.70;;;14.60;99.90;;;;;;4990334;28;20271;-69
2022/10/13 02:25:41;;;;;;;26.55;13.02;;;14.60;99.90;;;;;;4987816;28;20342;-69
2022/10/13 02:28:07;;;;;;;22.83;13.57;;;14.40;99.90;;;;;;5005257;28;20184;-69
2022/10/13 02:30:33;;;;;;;26.52;14.98;;;14.40;99.90;;;;;;4986982;28;20188;-69
2022/10/13 02:33:00;;;;;;;20.55;13.38;;;14.30;99.90;;;;;;4996626;28;20191;-68
2022/10/13 02:35:26;;;;;;;22.50;14.13;;;14.30;99.90;;;;;;5009136;28;20211;-68
2022/10/13 02:37:52;;;;;;;22.75;13.48;;;14.30;99.90;;;;;;4998906;28;20271;-71
2022/10/13 02:40:18;;;;;;;22.80;12.32;;;14.40;99.90;;;;;;4971641;28;20191;-68
2022/10/13 02:42:43;;;;;;;20.77;12.80;;;14.30;99.90;;;;;;5013979;28;20195;-69
2022/10/13 02:45:10;;;;;;;21.92;11.88;;;14.10;99.90;;;;;;4978792;28;20191;-68
2022/10/13 02:47:35;;;;;;;23.02;11.73;;;14.10;99.90;;;;;;5004380;28;20196;-68
2022/10/13 02:50:02;;;;;;;21.88;11.88;;;14.30;99.90;;;;;;5007748;28;20601;-68
2022/10/13 02:52:27;;;;;;;23.10;11.50;;;14.50;99.90;;;;;;4986728;28;20180;-69
2022/10/13 02:54:53;;;;;;;19.33;11.38;;;14.60;99.90;;;;;;5006794;28;20211;-69
2022/10/13 02:57:19;;;;;;;21.27;10.70;;;14.70;99.90;;;;;;4980391;28;20176;-69
2022/10/13 02:59:44;;;;;;;20.35;12.23;;;14.60;99.90;;;;;;4986681;28;20637;-68
2022/10/13 03:02:10;;;;;;;19.88;12.13;;;14.60;99.90;;;;;;5001434;28;20211;-69
2022/10/13 03:04:36;;;;;;;23.85;11.27;;;14.40;99.90;;;;;;4997235;28;20586;-69
2022/10/13 03:07:01;;;;;;;20.88;12.07;;;14.30;99.90;;;;;;4978433;28;20195;-69
2022/10/13 03:09:27;;;;;;;19.08;10.80;;;14.30;99.90;;;;;;5011575;28;20202;-69
2022/10/13 03:11:53;;;;;;;21.17;11.00;;;14.30;99.90;;;;;;4992811;28;20544;-69
2022/10/13 03:14:18;;;;;;;21.40;10.80;;;14.30;99.90;;;;;;5003390;28;20707;-69
2022/10/13 03:16:44;;;;;;;18.67;11.23;;;14.20;99.90;;;;;;4983381;28;20188;-69
2022/10/13 03:19:10;;;;;;;17.63;10.82;;;14.20;99.90;;;;;;4995752;28;20235;-69
2022/10/13 03:21:37;;;;;;;17.88;11.07;;;14.30;99.90;;;;;;4995671;28;20196;-69
2022/10/13 03:24:04;;;;;;;17.42;9.15;;;14.30;99.90;;;;;;5005046;28;20203;-69
2022/10/13 03:26:30;;;;;;;15.73;11.25;;;14.40;99.90;;;;;;5012339;28;20187;-68
2022/10/13 03:28:56;;;;;;;23.75;10.45;;;14.40;99.90;;;;;;5010683;28;20552;-69
2022/10/13 03:31:22;;;;;;;21.10;11.35;;;14.40;99.90;;;;;;5010772;28;20198;-68
2022/10/13 03:33:48;;;;;;;19.42;11.80;;;14.50;99.90;;;;;;5001062;28;20216;-68
2022/10/13 03:36:14;;;;;;;19.23;11.27;;;14.60;99.90;;;;;;4994328;28;20188;-68
2022/10/13 03:38:40;;;;;;;18.50;11.60;;;14.60;99.90;;;;;;4994520;28;20195;-69
2022/10/13 03:41:14;;;;;;;20.98;11.35;;;14.60;99.90;;;;;;4997272;28;20186;-71
2022/10/13 03:43:41;;;;;;;18.13;10.55;;;14.60;99.90;;;;;;4995416;28;20275;-69
2022/10/13 03:46:09;;;;;;;24.05;11.63;;;14.40;99.90;;;;;;5009423;28;20233;-68
2022/10/13 03:48:35;;;;;;;21.55;11.07;;;14.20;99.90;;;;;;5003530;28;20266;-68
2022/10/13 03:51:20;;;;;;;30.75;12.45;;;14.00;99.90;;;;;;4987675;28;20191;-68
2022/10/13 03:53:47;;;;;;;17.95;10.35;;;14.20;99.90;;;;;;4975546;28;20212;-68
2022/10/13 03:56:16;;;;;;;19.17;11.82;;;14.30;99.90;;;;;;4989453;28;20531;-68
2022/10/13 03:58:42;;;;;;;17.60;10.32;;;14.50;99.90;;;;;;5003326;28;20179;-68
2022/10/13 04:01:09;;;;;;;18.33;9.93;;;14.50;99.90;;;;;;4985382;28;20246;-68
2022/10/13 04:03:35;;;;;;;15.77;10.32;;;14.40;99.90;;;;;;5007426;28;20675;-68
2022/10/13 04:06:02;;;;;;;15.10;9.88;;;14.30;99.90;;;;;;4986259;28;20188;-69
2022/10/13 04:08:29;;;;;;;16.83;9.25;;;14.10;99.90;;;;;;4989506;28;20187;-69
2022/10/13 04:11:03;;;;;;;17.13;10.52;;;14.00;99.90;;;;;;4982790;28;20191;-68
2022/10/13 04:13:29;;;;;;;21.60;11.40;;;14.20;99.90;;;;;;4995299;28;20623;-68
2022/10/13 04:15:55;;;;;;;20.98;10.35;;;14.60;99.90;;;;;;4978196;28;20653;-68
2022/10/13 04:18:21;;;;;;;21.17;11.13;;;14.60;99.90;;;;;;4993684;28;20247;-68
2022/10/13 04:20:46;;;;;;;19.25;10.93;;;14.70;99.90;;;;;;5001062;28;20570;-68
2022/10/13 04:23:13;;;;;;;26.05;12.77;;;14.60;99.90;;;;;;4985767;28;20551;-68
2022/10/13 04:25:47;;;;;;;25.30;10.85;;;14.50;99.90;;;;;;4978747;28;20191;-68
2022/10/13 04:28:13;;;;;;;22.88;12.00;;;14.50;99.90;;;;;;4993266;28;20214;-68
2022/10/13 04:30:38;;;;;;;20.08;10.52;;;14.60;99.90;;;;;;5007070;28;20206;-68
2022/10/13 04:33:04;;;;;;;20.00;11.48;;;14.60;99.90;;;;;;4992593;28;20192;-68
2022/10/13 04:35:31;;;;;;;20.00;11.13;;;14.50;99.90;;;;;;4981753;28;20235;-68
2022/10/13 04:37:56;;;;;;;23.48;11.30;;;14.50;99.90;;;;;;5010614;28;20269;-68
2022/10/13 04:40:23;;;;;;;18.35;9.23;;;14.60;99.90;;;;;;4994224;28;20782;-68
2022/10/13 04:42:49;;;;;;;20.58;10.77;;;14.50;99.90;;;;;;4995656;28;20199;-68
2022/10/13 04:45:15;;;;;;;18.65;8.95;;;14.40;99.90;;;;;;4990439;28;20541;-68
2022/10/13 04:47:41;;;;;;;16.35;8.98;;;14.30;99.90;;;;;;5008296;28;20195;-68
2022/10/13 04:50:07;;;;;;;20.55;10.02;;;14.30;99.90;;;;;;5002653;28;20269;-68
2022/10/13 04:52:34;;;;;;;15.50;10.30;;;14.30;99.90;;;;;;4986713;28;20207;-68
2022/10/13 04:55:03;;;;;;;20.17;10.63;;;14.50;99.90;;;;;;5004650;28;20219;-68
2022/10/13 04:57:29;;;;;;;16.45;9.60;;;14.50;99.90;;;;;;5000518;28;20184;-68
2022/10/13 04:59:54;;;;;;;20.55;10.13;;;14.50;99.90;;;;;;4995753;28;20684;-68
2022/10/13 05:02:20;;;;;;;19.70;11.10;;;14.50;99.90;;;;;;5007075;28;20274;-68
2022/10/13 05:04:46;;;;;;;15.35;10.23;;;14.70;99.90;;;;;;4971466;28;20719;-68
2022/10/13 05:07:11;;;;;;;17.48;9.77;;;14.60;99.90;;;;;;4996851;28;20187;-68
2022/10/13 05:09:37;;;;;;;16.38;10.20;;;14.60;99.90;;;;;;5005546;28;20192;-68
2022/10/13 05:12:03;;;;;;;17.73;9.18;;;14.70;99.90;;;;;;4981254;28;20194;-68
2022/10/13 05:14:30;;;;;;;22.48;10.77;;;14.50;99.90;;;;;;4990430;28;20212;-68
2022/10/13 05:16:56;;;;;;;16.50;9.98;;;14.50;99.90;;;;;;4994199;28;20192;-68
2022/10/13 05:19:23;;;;;;;15.75;9.60;;;14.40;99.90;;;;;;4996426;28;20647;-69
2022/10/13 05:21:49;;;;;;;18.05;10.45;;;14.50;99.90;;;;;;4965163;28;20271;-68
2022/10/13 05:24:15;;;;;;;17.58;9.82;;;14.30;99.90;;;;;;4996532;28;20199;-68
2022/10/13 05:26:41;;;;;;;22.13;9.38;;;14.50;99.90;;;;;;4952074;28;20191;-68
2022/10/13 05:29:07;;;;;;;19.45;9.45;;;14.60;99.90;;;;;;4984203;28;20243;-68
2022/10/13 05:31:35;;;;;;;19.42;9.75;;;14.60;99.90;;;;;;4997807;28;20199;-68
2022/10/13 05:34:03;;;;;;;15.30;9.40;;;14.60;99.90;;;;;;5014717;28;20318;-70
2022/10/13 05:36:31;;;;;;;15.55;9.45;;;14.40;99.90;;;;;;4977989;28;20641;-68
2022/10/13 05:39:03;;;;;;;16.58;10.27;;;14.30;99.90;;;;;;5008357;28;20531;-68
2022/10/13 05:41:29;;;;;;;18.27;9.15;;;14.30;99.90;;;;;;4997389;28;20180;-66
2022/10/13 05:44:05;;;;;;;20.52;10.07;;;14.30;99.90;;;;;;5005386;28;20664;-67
2022/10/13 05:46:31;;;;;;;22.50;10.38;;;14.20;99.90;;;;;;5002916;28;20183;-67
2022/10/13 05:48:56;;;;;;;19.33;9.38;;;14.20;99.90;;;;;;4996896;28;20552;-67
2022/10/13 05:51:55;;;;;;;16.80;9.38;;;14.20;99.90;;;;;;5006176;28;20191;-68
2022/10/13 05:54:28;;;;;;;18.92;10.50;;;14.20;99.90;;;;;;4991050;28;20282;-68
2022/10/13 05:57:09;;;;;;;16.23;10.23;;;14.10;99.90;;;;;;4998633;28;20196;-67
2022/10/13 05:59:38;;;;;;;18.33;10.75;;;14.10;99.90;;;;;;5004682;28;20253;-67
2022/10/13 06:02:08;;;;;;;18.08;10.07;;;14.30;99.90;;;;;;5009643;28;20179;-68
2022/10/13 06:04:39;;;;;;;19.20;10.40;;;14.60;99.90;;;;;;4989220;28;20187;-68
2022/10/13 06:07:06;;;;;;;18.20;9.30;;;14.70;99.90;;;;;;5004754;28;20179;-68
2022/10/13 06:09:36;;;;;;;13.35;8.05;;;14.70;99.90;;;;;;4994166;28;20179;-68
2022/10/13 06:12:03;;;;;;;14.02;8.98;;;14.40;99.90;;;;;;4978279;28;20207;-69
2022/10/13 06:14:29;;;;;;;13.95;9.07;;;14.20;99.90;;;;;;5005832;28;20700;-68
2022/10/13 06:16:55;;;;;;;21.25;10.38;;;14.20;99.90;;;;;;4981794;28;20520;-68
2022/10/13 06:19:20;;;;;;;19.83;10.13;;;14.40;99.90;;;;;;4966975;28;20192;-67
2022/10/13 06:21:46;;;;;;;19.27;9.25;;;14.40;99.90;;;;;;4997947;28;20184;-68
2022/10/13 06:24:12;;;;;;;20.00;9.18;;;14.20;99.90;;;;;;4993812;28;20213;-67
2022/10/13 06:26:37;;;;;;;19.52;10.65;;;14.10;99.90;;;;;;4999331;28;20188;-67
2022/10/13 06:29:03;;;;;;;14.73;9.07;;;14.00;99.90;;;;;;5000452;28;20180;-68
2022/10/13 06:31:29;;;;;;;16.98;9.60;;;14.10;99.90;;;;;;4992379;28;20229;-67
2022/10/13 06:33:55;;;;;;;20.02;9.80;;;14.30;99.90;;;;;;5003089;28;20227;-68
2022/10/13 06:36:20;;;;;;;21.83;10.25;;;14.40;99.90;;;;;;4979875;28;20199;-68
2022/10/13 06:38:46;;;;;;;17.45;9.80;;;14.50;99.90;;;;;;4989582;28;20235;-67
2022/10/13 06:41:15;;;;;;;17.52;9.15;;;14.40;99.90;;;;;;4994213;28;20194;-67
2022/10/13 06:43:41;;;;;;;16.35;8.57;;;14.50;99.90;;;;;;5010948;28;20594;-67
2022/10/13 06:46:07;;;;;;;16.40;10.13;;;14.60;99.90;;;;;;5001218;28;20198;-67
2022/10/13 06:48:34;;;;;;;18.85;10.35;;;14.80;99.90;;;;;;4997783;28;20203;-65
2022/10/13 06:51:01;;;;;;;12.10;8.73;;;15.00;99.90;;;;;;4998366;28;20199;-67
2022/10/13 06:53:27;;;;;;;20.42;9.23;;;15.10;99.90;;;;;;4987912;28;20672;-67
2022/10/13 06:55:56;;;;;;;19.75;9.57;;;15.10;99.90;;;;;;4953510;28;20212;-66
2022/10/13 06:58:21;;;;;;;14.27;8.50;;;14.90;99.90;;;;;;5008913;28;20188;-65
2022/10/13 07:00:47;;;;;;;17.65;8.75;;;15.00;99.90;;;;;;4983021;28;20267;-66
2022/10/13 07:03:13;;;;;;;18.92;10.25;;;15.00;99.90;;;;;;4978196;28;20279;-66
2022/10/13 07:05:38;;;;;;;15.60;9.45;;;15.00;99.90;;;;;;4988465;28;20195;-66
2022/10/13 07:08:04;;;;;;;13.93;8.57;;;14.90;99.90;;;;;;4997870;28;20188;-67
2022/10/13 07:10:29;;;;;;;16.85;9.48;;;14.90;99.90;;;;;;4969992;28;20198;-66
2022/10/13 07:12:56;;;;;;;13.52;9.57;;;14.90;99.90;;;;;;5006469;28;20207;-66
2022/10/13 07:15:23;;;;;;;15.80;9.18;;;15.00;99.90;;;;;;5009539;28;20290;-66
2022/10/13 07:17:51;;;;;;;12.95;8.38;;;14.90;99.90;;;;;;4998490;28;20191;-66
2022/10/13 07:20:16;;;;;;;17.70;9.00;;;15.10;99.90;;;;;;4979289;28;20271;-66
2022/10/13 07:22:44;;;;;;;14.27;7.97;;;15.10;99.90;;;;;;4975671;28;20278;-66
2022/10/13 07:25:10;;;;;;;15.70;8.18;;;15.20;99.90;;;;;;5007192;28;20199;-66
2022/10/13 07:27:37;;;;;;;13.70;9.10;;;15.30;99.90;;;;;;4995418;28;20175;-66
2022/10/13 07:30:04;;;;;;;15.57;8.38;;;15.10;99.90;;;;;;5005812;28;20192;-66
2022/10/13 07:32:30;;;;;;;15.27;8.43;;;14.90;99.90;;;;;;4992455;28;20541;-68
2022/10/13 07:34:56;;;;;;;13.77;7.95;;;14.80;99.90;;;;;;4993327;28;20256;-66
2022/10/13 07:37:22;;;;;;;16.48;9.27;;;15.00;99.90;;;;;;4978717;28;20192;-67
2022/10/13 07:39:48;;;;;;;16.20;9.15;;;15.20;99.90;;;;;;4996333;28;20251;-67
2022/10/13 07:42:14;;;;;;;13.93;8.75;;;15.20;99.90;;;;;;4978389;28;20299;-66
2022/10/13 07:44:39;;;;;;;18.13;8.60;;;15.30;99.90;;;;;;4980137;28;20689;-67
2022/10/13 07:47:05;;;;;;;12.07;7.93;;;15.40;99.90;;;;;;5004103;28;20640;-68
2022/10/13 07:49:30;;;;;;;13.85;8.60;;;15.40;99.90;;;;;;4998526;28;20231;-67
2022/10/13 07:51:56;;;;;;;18.27;9.52;;;15.30;99.90;;;;;;4997521;28;20278;-67
2022/10/13 07:54:22;;;;;;;15.45;9.55;;;15.40;99.90;;;;;;4996090;28;20230;-67
2022/10/13 07:56:51;;;;;;;16.20;8.80;;;15.50;99.90;;;;;;4990655;28;20191;-67
2022/10/13 07:59:17;;;;;;;14.80;7.50;;;15.50;99.90;;;;;;4993868;28;20556;-67
2022/10/13 08:01:43;;;;;;;16.45;7.50;;;15.50;99.90;;;;;;4994701;28;20271;-67
2022/10/13 08:04:08;;;;;;;13.18;8.55;;;15.40;99.90;;;;;;4988310;28;20561;-67
2022/10/13 08:06:34;;;;;;;12.50;8.63;;;15.40;99.90;;;;;;4995730;28;20190;-67
2022/10/13 08:09:00;;;;;;;10.48;7.05;;;15.30;99.90;;;;;;5005622;28;20655;-67
2022/10/13 08:11:26;;;;;;;12.32;8.50;;;15.40;99.90;;;;;;4994077;28;20263;-67
2022/10/13 08:13:52;;;;;;;16.63;7.90;;;15.40;99.90;;;;;;4976815;28;20307;-67
2022/10/13 08:16:18;;;;;;;12.57;6.97;;;15.40;99.90;;;;;;4976446;28;20223;-67
2022/10/13 08:18:45;;;;;;;13.82;7.60;;;15.40;99.90;;;;;;4978321;28;20648;-67
2022/10/13 08:21:18;;;;;;;12.73;8.13;;;15.40;99.90;;;;;;4992342;28;20195;-67
2022/10/13 08:23:44;;;;;;;12.32;7.82;;;15.50;99.90;;;;;;4993670;28;20191;-67
2022/10/13 08:26:22;;;;;;;14.40;8.05;;;15.60;99.90;;;;;;4998593;28;20218;-67
2022/10/13 08:28:47;;;;;;;10.73;7.03;;;15.60;99.90;;;;;;5000088;28;20266;-67
2022/10/13 08:31:13;;;;;;;17.65;8.13;;;15.60;99.90;;;;;;4975973;28;20274;-67
2022/10/13 08:33:40;;;;;;;13.95;7.90;;;15.90;99.90;;;;;;4983058;28;20251;-67
2022/10/13 08:36:06;;;;;;;14.15;7.50;;;16.00;99.90;;;;;;4975676;28;20232;-67
2022/10/13 08:38:32;;;;;;;11.02;7.40;;;16.00;99.90;;;;;;4976157;28;20191;-67
2022/10/13 08:40:58;;;;;;;11.20;6.93;;;15.90;99.90;;;;;;4975299;28;20184;-67
2022/10/13 08:43:25;;;;;;;10.63;7.85;;;15.80;99.90;;;;;;4975670;28;20273;-67
2022/10/13 08:45:57;;;;;;;12.98;6.47;;;15.80;99.90;;;;;;4992563;28;20176;-67
2022/10/13 08:48:28;;;;;;;11.88;7.28;;;16.00;99.90;;;;;;4993334;28;20211;-67
2022/10/13 08:50:56;;;;;;;12.02;7.63;;;16.20;99.90;;;;;;4990932;28;20183;-67
2022/10/13 08:53:22;;;;;;;11.85;7.60;;;16.30;99.90;;;;;;5007928;28;20176;-67
2022/10/13 08:55:51;;;;;;;12.30;7.88;;;16.30;99.90;;;;;;4997688;28;20195;-67
2022/10/13 08:58:20;;;;;;;15.93;8.32;;;16.30;99.90;;;;;;4996248;28;20188;-69
2022/10/13 09:00:45;;;;;;;9.80;5.88;;;16.30;99.90;;;;;;4994723;28;20652;-67
2022/10/13 09:03:27;;;;;;;10.88;6.72;;;16.30;99.90;;;;;;4993622;28;20219;-67
2022/10/13 09:06:03;;;;;;;16.05;8.38;;;16.30;99.90;;;;;;4999800;28;20192;-67
2022/10/13 09:08:38;;;;;;;14.02;6.60;;;16.40;99.90;;;;;;4995559;28;20318;-67
2022/10/13 09:11:04;;;;;;;15.52;7.95;;;16.30;99.90;;;;;;4982517;28;20590;-67
2022/10/13 09:13:29;;;;;;;13.32;6.60;;;16.30;99.90;;;;;;4998464;28;20315;-68
2022/10/13 09:15:56;;;;;;;14.57;7.25;;;16.30;99.90;;;;;;4958664;28;20196;-66
2022/10/13 09:18:29;;;;;;;9.23;6.47;;;16.20;99.90;;;;;;4997251;28;20270;-67
2022/10/13 09:21:22;;;;;;;14.43;8.20;;;16.20;99.90;;;;;;4992725;28;20186;-66
2022/10/13 09:23:50;;;;;;;12.45;7.80;;;16.20;99.90;;;;;;5001593;28;20207;-67
2022/10/13 09:26:24;;;;;;;16.65;7.32;;;16.10;99.90;;;;;;4993852;28;20176;-67
2022/10/13 09:28:51;;;;;;;11.25;7.00;;;16.10;99.90;;;;;;4977222;28;20322;-67
2022/10/13 09:31:25;;;;;;;18.00;7.47;;;16.10;99.90;;;;;;4999325;28;20196;-65
2022/10/13 09:34:14;;;;;;;13.30;7.63;;;16.30;99.90;;;;;;4999332;28;20284;-65
2022/10/13 09:36:57;;;;;;;13.75;7.38;;;16.20;99.90;;;;;;4975636;28;20181;-65
2022/10/13 09:39:23;;;;;;;13.27;8.27;;;16.10;99.90;;;;;;4999480;28;20179;-65
2022/10/13 09:41:49;;;;;;;13.13;9.10;;;16.10;99.90;;;;;;4978642;28;20646;-66
2022/10/13 09:44:30;;;;;;;17.20;8.70;;;16.00;99.90;;;;;;4995585;28;20199;-66
2022/10/13 09:47:00;;;;;;;15.38;8.93;;;15.90;99.90;;;;;;5002302;28;20214;-66
2022/10/13 09:49:38;;;;;;;12.65;7.55;;;15.90;99.90;;;;;;5010042;28;20222;-66
2022/10/13 09:52:12;;;;;;;10.98;7.78;;;16.10;99.90;;;;;;4996703;28;20398;-66
2022/10/13 09:54:54;;;;;;;12.55;7.95;;;16.00;99.90;;;;;;4997552;28;20698;-66
2022/10/13 09:57:29;;;;;;;19.08;8.68;;;16.10;99.90;;;;;;5002645;28;20215;-65
2022/10/13 10:00:03;;;;;;;15.88;6.72;;;16.30;99.90;;;;;;4995522;28;20281;-66
2022/10/13 10:02:39;;;;;;;15.13;7.80;;;16.40;99.90;;;;;;4998029;28;20202;-66
2022/10/13 10:05:34;;;;;;;14.45;7.53;;;16.50;99.90;;;;;;4982259;28;20192;-66
2022/10/13 10:08:10;;;;;;;10.18;7.43;;;16.50;99.90;;;;;;5003778;28;20223;-66
2022/10/13 10:10:39;;;;;;;10.18;7.90;;;16.60;99.90;;;;;;5012588;28;20201;-66
2022/10/13 10:13:07;;;;;;;14.02;7.47;;;16.70;99.90;;;;;;4994426;28;20247;-66
2022/10/13 10:15:51;;;;;;;13.60;7.65;;;16.70;99.90;;;;;;5002377;28;21197;-67
2022/10/13 10:18:41;;;;;;;14.00;8.48;;;16.90;99.90;;;;;;5006073;28;20659;-67
2022/10/13 10:21:22;;;;;;;9.30;6.35;;;16.80;99.90;;;;;;5001462;28;20271;-67
2022/10/13 10:24:00;;;;;;;13.63;7.78;;;16.80;99.90;;;;;;5008672;28;20183;-67
2022/10/13 10:26:37;;;;;;;9.85;6.75;;;16.90;99.90;;;;;;5006722;28;20184;-67
2022/10/13 10:29:20;;;;;;;11.70;7.38;;;17.00;99.90;;;;;;5000408;28;20184;-67
2022/10/13 10:32:00;;;;;;;13.48;7.80;;;17.00;99.90;;;;;;5012540;28;20190;-67
2022/10/13 10:35:03;;;;;;;9.63;7.15;;;16.90;99.90;;;;;;4996322;28;20214;-66
2022/10/13 10:37:57;;;;;;;10.80;8.27;;;16.70;99.90;;;;;;5008710;28;20528;-67
2022/10/13 10:40:23;;;;;;;15.00;7.82;;;16.80;99.90;;;;;;4920969;28;20658;-67
2022/10/13 10:43:16;;;;;;;12.95;8.20;;;16.70;99.90;;;;;;5010222;28;20180;-66
2022/10/13 10:45:46;;;;;;;11.73;8.15;;;16.50;99.90;;;;;;5003884;28;20184;-67
2022/10/13 10:48:18;;;;;;;10.55;7.90;;;16.60;99.90;;;;;;5001943;28;20306;-68
2022/10/13 10:50:45;;;;;;;14.43;7.88;;;16.40;99.90;;;;;;5001929;28;20544;-67
2022/10/13 10:53:32;;;;;;;16.05;8.98;;;16.40;99.90;;;;;;4988806;28;20720;-67
2022/10/13 10:56:18;;;;;;;10.77;8.48;;;16.40;99.90;;;;;;5006240;28;20645;-67
2022/10/13 10:59:15;;;;;;;14.85;8.80;;;16.30;99.90;;;;;;4992116;28;20179;-67
2022/10/13 11:02:11;;;;;;;14.85;8.25;;;16.10;99.90;;;;;;4998533;28;20191;-67
2022/10/13 11:04:42;;;;;;;14.38;8.90;;;15.90;99.90;;;;;;4994914;28;20188;-66
2022/10/13 11:07:12;;;;;;;15.45;9.40;;;15.80;99.90;;;;;;5012280;28;20271;-67
2022/10/13 11:09:41;;;;;;;17.80;10.65;;;15.30;99.90;;;;;;4989154;28;20194;-66
2022/10/13 11:12:43;;;;;;;16.70;9.18;;;15.30;99.90;;;;;;4999804;28;20275;-67
2022/10/13 11:15:11;;;;;;;18.30;9.40;;;15.40;99.90;;;;;;4995121;28;20290;-68
2022/10/13 11:17:41;;;;;;;17.60;8.35;;;15.40;99.90;;;;;;4991225;28;20180;-66
2022/10/13 11:20:19;;;;;;;19.90;9.57;;;15.40;99.90;;;;;;4977466;28;20188;-67
2022/10/13 11:22:59;;;;;;;20.10;10.18;;;15.50;99.90;;;;;;4978303;28;20195;-66
2022/10/13 11:25:40;;;;;;;14.63;9.65;;;15.60;99.90;;;;;;5002347;28;20675;-67
2022/10/13 11:28:21;;;;;;;16.35;9.13;;;15.70;99.90;;;;;;5003273;28;20192;-66
2022/10/13 11:31:16;;;;;;;18.23;9.93;;;15.40;99.90;;;;;;4986201;28;20219;-66
2022/10/13 11:33:43;;;;;;;16.85;9.88;;;15.60;99.90;;;;;;4988925;28;20188;-66
2022/10/13 11:36:33;;;;;;;13.32;9.48;;;15.60;99.90;;;;;;4995209;28;20191;-67
2022/10/13 11:39:18;;;;;;;15.40;9.90;;;15.50;99.90;;;;;;5009087;28;20183;-66
2022/10/13 11:41:50;;;;;;;16.65;9.60;;;15.50;99.90;;;;;;5001326;28;20175;-66
2022/10/13 11:44:30;;;;;;;17.73;10.25;;;15.50;99.90;;;;;;5006661;28;20199;-66
2022/10/13 11:47:31;;;;;;;18.42;11.32;;;15.70;99.90;;;;;;4996738;28;20283;-66
2022/10/13 11:50:13;;;;;;;18.50;11.07;;;15.90;99.90;;;;;;4962788;28;20202;-66
2022/10/13 11:53:10;;;;;;;16.40;11.50;;;16.00;99.90;;;;;;5005820;28;20234;-66
2022/10/13 11:55:51;;;;;;;25.70;12.07;;;16.10;99.90;;;;;;5012560;28;20207;-67
2022/10/13 11:58:17;;;;;;;16.35;11.05;;;16.10;99.90;;;;;;5007233;28;20191;-69
2022/10/13 12:01:18;;;;;;;17.40;10.38;;;16.20;99.90;;;;;;4997056;28;20192;-66
2022/10/13 12:03:46;;;;;;;16.83;11.32;;;16.30;99.90;;;;;;4918527;29;20680;-66
2022/10/13 12:06:32;;;;;;;21.38;11.75;;;16.30;99.90;;;;;;4979864;28;20230;-66
2022/10/13 12:09:04;;;;;;;19.85;11.43;;;16.40;99.90;;;;;;5002954;28;20265;-66
2022/10/13 12:11:34;;;;;;;22.95;11.00;;;16.40;99.90;;;;;;4999761;28;20204;-66
2022/10/13 12:14:01;;;;;;;19.02;10.68;;;16.30;99.90;;;;;;5007641;28;20290;-66
2022/10/13 12:16:28;;;;;;;19.92;10.52;;;16.30;99.90;;;;;;5004371;28;20195;-66
2022/10/13 12:19:08;;;;;;;19.23;10.70;;;16.30;99.90;;;;;;4979125;28;20192;-66
2022/10/13 12:21:46;;;;;;;21.67;11.32;;;16.30;99.90;;;;;;4998333;28;20180;-66
2022/10/13 12:24:15;;;;;;;14.38;10.70;;;16.30;99.90;;;;;;5008518;28;20248;-66
2022/10/13 12:26:41;;;;;;;19.27;10.93;;;16.20;99.90;;;;;;4995116;28;20191;-66
2022/10/13 12:29:12;;;;;;;20.95;10.68;;;16.00;99.90;;;;;;5008791;28;20187;-66
2022/10/13 12:31:41;;;;;;;16.88;10.82;;;16.00;99.90;;;;;;4992567;28;20203;-66
2022/10/13 12:34:23;;;;;;;19.85;11.70;;;16.00;99.90;;;;;;4998605;28;20301;-66
2022/10/13 12:36:59;;;;;;;20.95;11.60;;;16.00;99.90;;;;;;5007616;28;20261;-66
2022/10/13 12:39:28;;;;;;;24.30;12.30;;;16.20;99.90;;;;;;5002352;28;20652;-66
2022/10/13 12:41:54;;;;;;;22.52;13.30;;;16.40;99.90;;;;;;5006116;28;20191;-65
2022/10/13 12:44:26;;;;;;;18.58;12.15;;;16.30;99.90;;;;;;4989442;28;20669;-65
2022/10/13 12:47:02;;;;;;;22.60;12.27;;;16.30;99.90;;;;;;5008890;28;20592;-65
2022/10/13 12:49:33;;;;;;;20.42;11.15;;;16.40;99.90;;;;;;5008835;28;20575;-65
2022/10/13 12:52:04;;;;;;;21.40;12.68;;;16.40;99.90;;;;;;5004585;28;20198;-65